Time;durP1;ratioP1;P1;durP2;ratioP2;P2;SDS_P1;SDS_P2;PMS_P1;PMS_P2;Temp;Humidity;BMP_temperature;BMP_pressure;BME280_temperature;BME280_humidity;BME280_pressure;Samples;Min_cycle;Max_cycle;Signal;HPM_P1;HPM_P2
2021/12/16 00:09:43;;;;;;;7.00;2.13;;;;;;;;;;5090915;28;20059;-73
2021/12/16 00:29:14;;;;;;;3.65;1.90;;;;;;;;;;5091192;28;20059;-74
2021/12/16 00:34:10;;;;;;;3.05;1.77;;;;;;;;;;5091205;28;20051;-73
2021/12/16 00:36:38;;;;;;;3.33;1.63;;;;;;;;;;5073016;28;20047;-74
2021/12/16 00:39:09;;;;;;;4.87;1.60;;;;;;;;;;5091038;28;20090;-74
2021/12/16 00:41:37;;;;;;;3.15;1.80;;;;;;;;;;5089220;28;20102;-74
2021/12/16 00:44:14;;;;;;;3.70;1.85;;;;;;;;;;5091288;28;20120;-74
2021/12/16 00:47:12;;;;;;;3.90;1.88;;;;;;;;;;5089503;28;20050;-74
2021/12/16 00:49:43;;;;;;;4.53;2.00;;;;;;;;;;5090870;28;20040;-74
2021/12/16 00:55:09;;;;;;;4.38;1.80;;;;;;;;;;5089729;28;20054;-74
2021/12/16 00:57:36;;;;;;;3.70;1.60;;;;;;;;;;5089711;28;20516;-74
2021/12/16 01:00:05;;;;;;;4.95;1.80;;;;;;;;;;5090942;28;20557;-74
2021/12/16 01:38:11;;;;;;;2.58;1.50;;;;;;;;;;5089410;28;20482;-73
2021/12/16 01:51:15;;;;;;;3.65;1.70;;;;;;;;;;5089784;28;20055;-73
2021/12/16 01:54:26;;;;;;;2.35;1.42;;;;;;;;;;5088441;28;20087;-73
2021/12/16 01:56:47;;;;;;;4.55;1.70;;;;;;;;;;5089388;28;20048;-72
2021/12/16 01:59:18;;;;;;;3.45;1.73;;;;;;;;;;5089806;28;20418;-72
2021/12/16 02:01:45;;;;;;;2.88;1.60;;;;;;;;;;5088979;28;20494;-72
2021/12/16 02:04:24;;;;;;;3.47;1.40;;;;;;;;;;5089764;28;20414;-72
2021/12/16 02:07:08;;;;;;;2.92;1.50;;;;;;;;;;5089555;28;20122;-72
2021/12/16 02:09:42;;;;;;;2.05;1.35;;;;;;;;;;5087829;28;20093;-72
2021/12/16 02:12:32;;;;;;;2.63;1.60;;;;;;;;;;5088796;28;20497;-72
2021/12/16 02:31:36;;;;;;;4.78;1.60;;;;;;;;;;5089152;28;20044;-72
2021/12/16 02:34:22;;;;;;;5.35;1.85;;;;;;;;;;5088789;28;20059;-72
2021/12/16 02:36:48;;;;;;;3.10;1.65;;;;;;;;;;5087886;28;20048;-72
2021/12/16 02:39:28;;;;;;;3.55;1.85;;;;;;;;;;5087751;28;20048;-72
2021/12/16 02:41:57;;;;;;;6.47;2.22;;;;;;;;;;5089195;28;20040;-73
2021/12/16 02:49:36;;;;;;;2.83;1.50;;;;;;;;;;5089113;28;20166;-73
2021/12/16 02:52:02;;;;;;;3.90;1.75;;;;;;;;;;5088320;28;20123;-73
2021/12/16 02:54:29;;;;;;;3.80;1.60;;;;;;;;;;5091163;28;20395;-73
2021/12/16 02:56:55;;;;;;;3.53;1.52;;;;;;;;;;5091835;28;20047;-73
2021/12/16 02:59:26;;;;;;;3.75;1.35;;;;;;;;;;5093031;28;20082;-73
2021/12/16 03:01:54;;;;;;;4.60;1.77;;;;;;;;;;5092853;28;20475;-73
2021/12/16 03:04:21;;;;;;;4.18;1.40;;;;;;;;;;5092082;28;20140;-73
2021/12/16 03:06:50;;;;;;;4.68;1.80;;;;;;;;;;5091421;28;20051;-73
2021/12/16 03:09:21;;;;;;;6.63;1.75;;;;;;;;;;5092656;28;20468;-73
2021/12/16 03:14:39;;;;;;;3.08;1.50;;;;;;;;;;5091713;28;20477;-73
2021/12/16 03:20:31;;;;;;;3.35;1.25;;;;;;;;;;5087645;28;20080;-73
2021/12/16 03:23:10;;;;;;;3.58;1.50;;;;;;;;;;5089993;28;20481;-73
2021/12/16 03:38:26;;;;;;;4.78;1.90;;;;;;;;;;5091014;28;20510;-73
2021/12/16 03:40:53;;;;;;;2.58;1.33;;;;;;;;;;5091760;28;20133;-73
2021/12/16 03:43:19;;;;;;;3.10;1.35;;;;;;;;;;5091229;28;20052;-73
2021/12/16 03:48:44;;;;;;;3.00;1.60;;;;;;;;;;5092265;28;20052;-71
2021/12/16 03:51:17;;;;;;;6.03;1.50;;;;;;;;;;5090986;28;20056;-71
2021/12/16 03:53:44;;;;;;;5.22;1.60;;;;;;;;;;5091104;28;20508;-71
2021/12/16 03:56:10;;;;;;;11.85;1.50;;;;;;;;;;5092156;28;20136;-72
2021/12/16 03:58:37;;;;;;;5.35;2.20;;;;;;;;;;5091915;28;20059;-72
2021/12/16 04:01:06;;;;;;;4.55;1.63;;;;;;;;;;5092096;28;20327;-72
2021/12/16 04:03:32;;;;;;;4.70;1.35;;;;;;;;;;5091301;28;20047;-72
2021/12/16 04:05:59;;;;;;;7.65;1.80;;;;;;;;;;5089676;28;20047;-72
2021/12/16 04:08:25;;;;;;;4.05;1.60;;;;;;;;;;5091847;28;20040;-72
2021/12/16 04:11:01;;;;;;;5.72;1.50;;;;;;;;;;5091538;28;20087;-72
2021/12/16 04:13:28;;;;;;;3.25;1.40;;;;;;;;;;5090472;28;20055;-72
2021/12/16 04:15:54;;;;;;;5.85;1.95;;;;;;;;;;5090518;28;20044;-72
2021/12/16 04:18:20;;;;;;;4.32;1.38;;;;;;;;;;5090483;28;20418;-73
2021/12/16 04:20:47;;;;;;;4.57;1.55;;;;;;;;;;5089739;28;20059;-72
2021/12/16 04:23:14;;;;;;;4.45;1.60;;;;;;;;;;5091246;28;20055;-73
2021/12/16 04:25:42;;;;;;;3.45;1.40;;;;;;;;;;5091386;28;20051;-73
2021/12/16 04:28:14;;;;;;;3.20;1.40;;;;;;;;;;5091363;28;20039;-72
2021/12/16 04:30:40;;;;;;;4.60;1.38;;;;;;;;;;5089551;28;20093;-72
2021/12/16 04:33:06;;;;;;;3.35;1.50;;;;;;;;;;5090137;28;20036;-72
2021/12/16 04:35:33;;;;;;;3.33;1.60;;;;;;;;;;5091251;28;20391;-73
2021/12/16 04:37:59;;;;;;;7.07;1.70;;;;;;;;;;5091094;28;20078;-73
2021/12/16 04:40:27;;;;;;;4.28;1.77;;;;;;;;;;5091078;28;20482;-72
2021/12/16 04:42:59;;;;;;;6.43;1.92;;;;;;;;;;5091039;28;20067;-72
2021/12/16 04:45:25;;;;;;;3.60;1.55;;;;;;;;;;5089413;28;20418;-72
2021/12/16 04:47:52;;;;;;;5.15;1.23;;;;;;;;;;5090978;28;20048;-72
2021/12/16 04:50:19;;;;;;;5.85;1.67;;;;;;;;;;5090981;28;20048;-72
2021/12/16 04:52:45;;;;;;;5.25;1.85;;;;;;;;;;5089521;28;20059;-72
2021/12/16 04:55:12;;;;;;;4.63;1.75;;;;;;;;;;5089316;28;20047;-72
2021/12/16 04:57:38;;;;;;;2.20;1.08;;;;;;;;;;5089640;28;20123;-72
2021/12/16 05:00:06;;;;;;;3.15;1.52;;;;;;;;;;5090450;28;20044;-72
2021/12/16 05:02:32;;;;;;;2.70;1.20;;;;;;;;;;5090038;28;20044;-72
2021/12/16 05:04:58;;;;;;;4.15;1.48;;;;;;;;;;5090638;28;20094;-72
2021/12/16 05:07:24;;;;;;;3.90;1.50;;;;;;;;;;5089419;28;20112;-73
2021/12/16 05:10:04;;;;;;;3.38;1.42;;;;;;;;;;5090526;28;20058;-73
2021/12/16 05:12:34;;;;;;;3.55;1.70;;;;;;;;;;5090369;28;20466;-72
2021/12/16 05:15:00;;;;;;;7.25;1.67;;;;;;;;;;5090170;28;20104;-71
2021/12/16 05:17:38;;;;;;;4.25;1.85;;;;;;;;;;5089608;28;20083;-72
2021/12/16 05:20:08;;;;;;;11.40;1.67;;;;;;;;;;5090233;28;20106;-72
2021/12/16 05:25:31;;;;;;;5.22;1.48;;;;;;;;;;5088817;28;20047;-72
2021/12/16 05:27:57;;;;;;;5.10;1.58;;;;;;;;;;5089045;28;20052;-72
2021/12/16 05:30:23;;;;;;;6.32;1.63;;;;;;;;;;5088587;28;20086;-73
2021/12/16 05:32:49;;;;;;;3.38;1.33;;;;;;;;;;5089832;28;20047;-72
2021/12/16 05:35:17;;;;;;;5.30;1.50;;;;;;;;;;5090222;28;20087;-72
2021/12/16 05:37:44;;;;;;;3.25;1.05;;;;;;;;;;5090065;28;20474;-72
2021/12/16 05:40:12;;;;;;;3.30;1.38;;;;;;;;;;5089406;28;20093;-72
2021/12/16 05:42:38;;;;;;;3.92;1.85;;;;;;;;;;5089930;28;20497;-72
2021/12/16 05:45:05;;;;;;;2.60;1.40;;;;;;;;;;5089897;28;20398;-72
2021/12/16 05:47:31;;;;;;;3.72;1.27;;;;;;;;;;5089753;28;20152;-72
2021/12/16 05:49:57;;;;;;;5.32;1.55;;;;;;;;;;5088874;28;20079;-72
2021/12/16 05:52:23;;;;;;;4.55;1.55;;;;;;;;;;5089462;28;20044;-72
2021/12/16 05:54:49;;;;;;;4.93;1.67;;;;;;;;;;5089902;28;20044;-72
2021/12/16 05:57:15;;;;;;;4.43;1.42;;;;;;;;;;5088687;28;20048;-72
2021/12/16 05:59:41;;;;;;;5.00;1.48;;;;;;;;;;5089585;28;20048;-72
2021/12/16 06:02:08;;;;;;;3.20;1.27;;;;;;;;;;5088336;28;20489;-72
2021/12/16 06:04:34;;;;;;;3.17;1.58;;;;;;;;;;5088950;28;20134;-72
2021/12/16 06:07:00;;;;;;;3.50;1.38;;;;;;;;;;5088295;28;20043;-72
2021/12/16 06:09:26;;;;;;;4.65;1.20;;;;;;;;;;5089584;28;20421;-72
2021/12/16 06:11:54;;;;;;;4.32;1.30;;;;;;;;;;5089154;28;20395;-72
2021/12/16 06:27:51;;;;;;;3.40;1.60;;;;;;;;;;5088894;28;20422;-73
2021/12/16 06:30:23;;;;;;;3.15;1.23;;;;;;;;;;5089075;28;20101;-72
2021/12/16 06:32:49;;;;;;;4.35;1.30;;;;;;;;;;5089347;28;20040;-73
2021/12/16 06:35:16;;;;;;;5.15;1.80;;;;;;;;;;5087850;28;20047;-73
2021/12/16 06:37:42;;;;;;;2.22;1.15;;;;;;;;;;5088642;28;20044;-73
2021/12/16 06:40:09;;;;;;;3.67;1.50;;;;;;;;;;5070341;28;20076;-74
2021/12/16 06:42:37;;;;;;;2.90;1.58;;;;;;;;;;5088217;28;20524;-74
2021/12/16 06:45:11;;;;;;;2.78;1.30;;;;;;;;;;5089400;28;20398;-73
2021/12/16 06:47:46;;;;;;;3.33;1.23;;;;;;;;;;5088153;28;20056;-74
2021/12/16 06:50:22;;;;;;;2.60;1.38;;;;;;;;;;5068238;28;20055;-74
2021/12/16 06:52:50;;;;;;;5.78;1.13;;;;;;;;;;5071213;28;20415;-74
2021/12/16 06:55:25;;;;;;;3.13;1.50;;;;;;;;;;5089136;28;20457;-74
2021/12/16 06:57:55;;;;;;;3.17;1.35;;;;;;;;;;5087981;28;20387;-74
2021/12/16 07:00:30;;;;;;;3.97;1.50;;;;;;;;;;5088547;28;20040;-74
2021/12/16 07:03:05;;;;;;;5.18;1.23;;;;;;;;;;5089026;28;20090;-72
2021/12/16 07:05:33;;;;;;;4.40;1.40;;;;;;;;;;5089519;28;20056;-73
2021/12/16 07:07:59;;;;;;;2.97;1.42;;;;;;;;;;5070798;28;20040;-73
2021/12/16 07:10:26;;;;;;;6.32;1.33;;;;;;;;;;5088298;28;20088;-73
2021/12/16 07:12:55;;;;;;;5.22;1.50;;;;;;;;;;5087409;28;20076;-72
2021/12/16 07:15:24;;;;;;;2.63;1.10;;;;;;;;;;5070739;28;20131;-73
2021/12/16 07:17:51;;;;;;;3.30;1.20;;;;;;;;;;5070638;28;20357;-72
2021/12/16 07:20:19;;;;;;;4.07;1.20;;;;;;;;;;5087271;28;20227;-72
2021/12/16 07:22:46;;;;;;;2.08;1.17;;;;;;;;;;5087627;28;20044;-73
2021/12/16 07:25:12;;;;;;;3.10;1.30;;;;;;;;;;5070580;28;20081;-73
2021/12/16 07:27:38;;;;;;;2.67;1.23;;;;;;;;;;5088240;28;20086;-72
2021/12/16 07:30:06;;;;;;;3.72;1.48;;;;;;;;;;5088699;28;20052;-72
2021/12/16 07:32:32;;;;;;;3.45;1.33;;;;;;;;;;5087236;28;20040;-73
2021/12/16 07:34:59;;;;;;;4.13;1.60;;;;;;;;;;5088666;28;20040;-72
2021/12/16 07:37:25;;;;;;;3.67;1.67;;;;;;;;;;5070939;28;20082;-71
2021/12/16 07:39:51;;;;;;;4.53;1.80;;;;;;;;;;5086939;28;20048;-71
2021/12/16 07:42:26;;;;;;;4.00;1.80;;;;;;;;;;5091933;28;20464;-71
2021/12/16 07:44:52;;;;;;;3.42;1.77;;;;;;;;;;5090908;28;20054;-72
2021/12/16 07:47:18;;;;;;;6.22;1.80;;;;;;;;;;5091656;28;20131;-72
2021/12/16 07:49:44;;;;;;;5.40;1.65;;;;;;;;;;5091924;28;20044;-71
2021/12/16 07:52:13;;;;;;;5.63;1.50;;;;;;;;;;5091834;28;20040;-72
2021/12/16 07:54:39;;;;;;;4.57;1.60;;;;;;;;;;5091862;28;20044;-72
2021/12/16 07:57:06;;;;;;;3.60;1.88;;;;;;;;;;5090397;28;20043;-71
2021/12/16 07:59:32;;;;;;;3.28;1.70;;;;;;;;;;5088414;28;20541;-70
2021/12/16 08:01:59;;;;;;;5.30;1.50;;;;;;;;;;5073093;28;20487;-71
2021/12/16 08:04:29;;;;;;;4.07;1.65;;;;;;;;;;5088349;28;20134;-71
2021/12/16 08:06:58;;;;;;;5.40;1.60;;;;;;;;;;5087950;28;20040;-73
2021/12/16 08:09:24;;;;;;;;;;;;;;;;;;5090120;28;20063;-72
2021/12/16 08:11:51;;;;;;;4.13;1.65;;;;;;;;;;5087945;28;19924;-71
2021/12/16 08:14:18;;;;;;;5.18;1.90;;;;;;;;;;5089829;28;20052;-71
2021/12/16 08:16:44;;;;;;;3.63;1.67;;;;;;;;;;5089829;28;20394;-70
2021/12/16 08:19:10;;;;;;;4.05;1.58;;;;;;;;;;5089734;28;20118;-74
2021/12/16 08:21:38;;;;;;;3.60;1.58;;;;;;;;;;5088540;28;20521;-72
2021/12/16 08:24:06;;;;;;;4.65;1.77;;;;;;;;;;5088828;28;20121;-72
2021/12/16 08:26:33;;;;;;;4.88;1.70;;;;;;;;;;5089599;28;20036;-71
2021/12/16 08:28:59;;;;;;;4.22;1.80;;;;;;;;;;5089681;28;20093;-71
2021/12/16 08:31:25;;;;;;;4.60;1.70;;;;;;;;;;5089577;28;20575;-71
2021/12/16 08:33:51;;;;;;;4.60;1.70;;;;;;;;;;5088370;28;20051;-71
2021/12/16 08:36:18;;;;;;;3.00;1.70;;;;;;;;;;5088967;28;20051;-71
2021/12/16 08:38:44;;;;;;;4.25;2.03;;;;;;;;;;5089541;28;20043;-72
2021/12/16 08:41:16;;;;;;;3.60;1.52;;;;;;;;;;5088243;28;20044;-71
2021/12/16 08:43:44;;;;;;;4.45;1.75;;;;;;;;;;5087476;28;20048;-71
2021/12/16 08:46:12;;;;;;;4.60;1.92;;;;;;;;;;5089028;28;20043;-72
2021/12/16 08:48:39;;;;;;;4.10;1.70;;;;;;;;;;5086296;28;20048;-73
2021/12/16 08:51:05;;;;;;;5.55;1.77;;;;;;;;;;5086536;28;20036;-73
2021/12/16 08:53:32;;;;;;;3.92;2.13;;;;;;;;;;5088780;28;20089;-71
2021/12/16 08:55:58;;;;;;;5.63;2.05;;;;;;;;;;5088552;28;20079;-70
2021/12/16 08:58:25;;;;;;;3.97;1.75;;;;;;;;;;5089132;28;20036;-71
2021/12/16 09:01:11;;;;;;;4.10;1.73;;;;;;;;;;5088926;28;20048;-71
2021/12/16 09:03:38;;;;;;;5.90;2.42;;;;;;;;;;5089012;28;20036;-72
2021/12/16 09:06:04;;;;;;;4.20;1.70;;;;;;;;;;5088552;28;20043;-71
2021/12/16 09:08:30;;;;;;;3.53;1.60;;;;;;;;;;5088537;28;20079;-71
2021/12/16 09:10:57;;;;;;;4.22;1.70;;;;;;;;;;5086243;28;21269;-72
2021/12/16 09:13:23;;;;;;;3.85;1.73;;;;;;;;;;5087964;28;20052;-71
2021/12/16 09:15:54;;;;;;;2.97;1.70;;;;;;;;;;5086859;28;20043;-71
2021/12/16 09:18:26;;;;;;;3.85;1.77;;;;;;;;;;5087046;28;20036;-72
2021/12/16 09:20:53;;;;;;;3.88;1.83;;;;;;;;;;5088378;28;20067;-71
2021/12/16 09:23:19;;;;;;;3.40;1.77;;;;;;;;;;5088118;28;20517;-72
2021/12/16 09:25:46;;;;;;;4.95;1.90;;;;;;;;;;5087788;28;20866;-73
2021/12/16 09:28:13;;;;;;;9.27;2.08;;;;;;;;;;5087512;28;20050;-71
2021/12/16 09:30:39;;;;;;;9.00;2.35;;;;;;;;;;5085821;28;20158;-71
2021/12/16 09:33:07;;;;;;;10.80;2.33;;;;;;;;;;5087508;28;20487;-71
2021/12/16 09:35:34;;;;;;;6.60;2.15;;;;;;;;;;5086982;28;20056;-72
2021/12/16 09:38:01;;;;;;;8.32;2.03;;;;;;;;;;5087369;28;20039;-71
2021/12/16 09:40:28;;;;;;;7.35;2.08;;;;;;;;;;5085049;28;20573;-72
2021/12/16 09:42:55;;;;;;;8.05;2.22;;;;;;;;;;5087795;28;20055;-70
2021/12/16 09:45:22;;;;;;;5.70;2.08;;;;;;;;;;5087911;28;20042;-70
2021/12/16 09:47:48;;;;;;;6.75;1.80;;;;;;;;;;5087203;28;20055;-71
2021/12/16 09:50:18;;;;;;;4.93;2.20;;;;;;;;;;5087192;28;20036;-70
2021/12/16 09:52:44;;;;;;;4.90;1.88;;;;;;;;;;5086268;28;20502;-71
2021/12/16 09:55:10;;;;;;;4.35;1.92;;;;;;;;;;5087735;28;20044;-71
2021/12/16 09:57:37;;;;;;;4.70;2.20;;;;;;;;;;5086826;28;20047;-71
2021/12/16 10:00:05;;;;;;;5.47;2.10;;;;;;;;;;5088091;28;20040;-70
2021/12/16 10:02:32;;;;;;;3.75;1.92;;;;;;;;;;5087221;28;20047;-71
2021/12/16 10:04:58;;;;;;;8.25;2.33;;;;;;;;;;5087497;28;20043;-71
2021/12/16 10:07:28;;;;;;;5.40;2.28;;;;;;;;;;5087789;28;20552;-71
2021/12/16 10:09:55;;;;;;;6.50;2.30;;;;;;;;;;5084486;28;20052;-71
2021/12/16 10:12:27;;;;;;;8.88;2.40;;;;;;;;;;5087654;28;20474;-72
2021/12/16 10:17:31;;;;;;;6.50;1.95;;;;;;;;;;5086613;28;20494;-71
2021/12/16 10:20:00;;;;;;;5.45;1.80;;;;;;;;;;5086286;28;20399;-71
2021/12/16 10:22:32;;;;;;;3.42;2.00;;;;;;;;;;5087293;28;20512;-72
2021/12/16 10:25:15;;;;;;;4.32;2.10;;;;;;;;;;5087217;28;20054;-71
2021/12/16 10:27:51;;;;;;;5.40;2.30;;;;;;;;;;5087874;28;20040;-72
2021/12/16 10:30:17;;;;;;;10.10;2.50;;;;;;;;;;5084872;28;20618;-72
2021/12/16 10:32:45;;;;;;;8.20;2.58;;;;;;;;;;5087288;28;20505;-73
2021/12/16 10:35:15;;;;;;;8.25;3.55;;;;;;;;;;5087744;28;20040;-74
2021/12/16 10:37:43;;;;;;;7.63;3.17;;;;;;;;;;5079593;28;20101;-73
2021/12/16 10:40:28;;;;;;;9.77;3.28;;;;;;;;;;5085200;28;20036;-76
2021/12/16 10:42:54;;;;;;;8.32;3.25;;;;;;;;;;5086689;28;20100;-73
2021/12/16 10:45:32;;;;;;;7.45;3.35;;;;;;;;;;5086650;28;20062;-72
2021/12/16 10:48:09;;;;;;;8.73;4.10;;;;;;;;;;5084288;28;20101;-73
2021/12/16 10:50:47;;;;;;;7.10;3.67;;;;;;;;;;5086352;28;20051;-73
2021/12/16 10:53:14;;;;;;;8.07;4.05;;;;;;;;;;5086145;28;20054;-73
2021/12/16 10:55:57;;;;;;;8.80;4.00;;;;;;;;;;5086377;28;20040;-73
2021/12/16 10:58:43;;;;;;;7.90;3.60;;;;;;;;;;5084809;28;20056;-73
2021/12/16 11:01:29;;;;;;;9.57;3.80;;;;;;;;;;5085886;28;20048;-74
2021/12/16 11:03:55;;;;;;;7.72;3.92;;;;;;;;;;5084137;28;20070;-73
2021/12/16 11:06:32;;;;;;;7.35;3.92;;;;;;;;;;5086160;28;20044;-73
2021/12/16 11:09:17;;;;;;;8.65;3.70;;;;;;;;;;5084255;28;20047;-72
2021/12/16 11:11:43;;;;;;;6.60;3.72;;;;;;;;;;5065500;28;20082;-73
2021/12/16 11:14:09;;;;;;;7.88;3.95;;;;;;;;;;5065879;28;20044;-73
2021/12/16 11:16:37;;;;;;;7.57;4.00;;;;;;;;;;5069588;28;20092;-73
2021/12/16 11:19:03;;;;;;;7.68;4.28;;;;;;;;;;5069782;28;20476;-73
2021/12/16 11:21:39;;;;;;;9.10;4.30;;;;;;;;;;5067688;28;20482;-73
2021/12/16 11:24:26;;;;;;;7.00;3.95;;;;;;;;;;5068187;28;20449;-73
2021/12/16 11:26:52;;;;;;;7.53;3.50;;;;;;;;;;5068547;28;20114;-73
2021/12/16 11:29:18;;;;;;;7.85;4.13;;;;;;;;;;5050774;28;20159;-73
2021/12/16 11:31:49;;;;;;;6.32;3.97;;;;;;;;;;5069164;28;20469;-73
2021/12/16 11:34:16;;;;;;;6.43;4.18;;;;;;;;;;5069279;28;20044;-72
2021/12/16 11:36:47;;;;;;;7.15;3.97;;;;;;;;;;5057669;28;20458;-73
2021/12/16 11:39:16;;;;;;;5.90;3.85;;;;;;;;;;5068058;28;20087;-72
2021/12/16 11:41:46;;;;;;;7.25;4.00;;;;;;;;;;5068138;28;20039;-73
2021/12/16 11:44:19;;;;;;;6.85;4.10;;;;;;;;;;5069611;28;20115;-73
2021/12/16 11:47:15;;;;;;;7.35;3.67;;;;;;;;;;5068408;28;20044;-73
2021/12/16 11:49:43;;;;;;;7.30;3.80;;;;;;;;;;5067043;28;20155;-73
2021/12/16 11:52:15;;;;;;;7.97;4.05;;;;;;;;;;5068195;28;20051;-74
2021/12/16 11:54:43;;;;;;;6.82;3.80;;;;;;;;;;5068760;28;20507;-74
2021/12/16 11:57:15;;;;;;;5.80;3.55;;;;;;;;;;5067618;28;20097;-73
2021/12/16 11:59:41;;;;;;;5.60;3.70;;;;;;;;;;5066472;28;20053;-73
2021/12/16 12:02:18;;;;;;;6.18;3.53;;;;;;;;;;5063655;28;20189;-73
2021/12/16 12:04:44;;;;;;;8.15;4.30;;;;;;;;;;5067704;28;20040;-74
2021/12/16 12:07:12;;;;;;;6.93;3.88;;;;;;;;;;5069615;28;20052;-72
2021/12/16 12:09:40;;;;;;;9.77;4.22;;;;;;;;;;5074701;28;20052;-73
2021/12/16 12:12:07;;;;;;;6.70;3.72;;;;;;;;;;5088999;28;20113;-73
2021/12/16 12:14:35;;;;;;;5.97;3.38;;;;;;;;;;5089439;28;20498;-74
2021/12/16 12:17:10;;;;;;;7.57;3.72;;;;;;;;;;5087929;28;20382;-73
2021/12/16 12:19:41;;;;;;;6.43;3.60;;;;;;;;;;5085228;28;20048;-73
2021/12/16 12:22:07;;;;;;;7.45;3.78;;;;;;;;;;5089562;28;20040;-72
2021/12/16 12:24:36;;;;;;;6.82;4.07;;;;;;;;;;5070687;28;20048;-73
2021/12/16 12:27:10;;;;;;;5.43;2.92;;;;;;;;;;5086237;28;20123;-73
2021/12/16 12:29:44;;;;;;;7.15;3.60;;;;;;;;;;5089291;28;20048;-73
2021/12/16 12:32:12;;;;;;;6.28;3.90;;;;;;;;;;5089602;28;20114;-73
2021/12/16 12:34:41;;;;;;;6.10;3.70;;;;;;;;;;5087733;28;20086;-73
2021/12/16 12:37:09;;;;;;;6.47;3.83;;;;;;;;;;5078722;28;20043;-72
2021/12/16 12:39:38;;;;;;;7.10;3.53;;;;;;;;;;5089166;28;20048;-74
2021/12/16 12:42:06;;;;;;;6.43;3.80;;;;;;;;;;5090275;28;20486;-73
2021/12/16 12:44:32;;;;;;;6.43;4.22;;;;;;;;;;5087498;28;20063;-74
2021/12/16 12:47:00;;;;;;;6.68;3.80;;;;;;;;;;5086519;28;20114;-73
2021/12/16 12:49:29;;;;;;;7.25;3.85;;;;;;;;;;5088851;28;20040;-74
2021/12/16 12:52:08;;;;;;;7.07;3.85;;;;;;;;;;5088354;28;20087;-74
2021/12/16 12:54:34;;;;;;;7.43;3.90;;;;;;;;;;5086914;28;20059;-74
2021/12/16 12:57:17;;;;;;;6.63;3.80;;;;;;;;;;5088197;28;20044;-74
2021/12/16 12:59:43;;;;;;;6.55;3.72;;;;;;;;;;5088390;28;20032;-74
2021/12/16 13:02:14;;;;;;;6.85;3.97;;;;;;;;;;5070188;28;20036;-73
2021/12/16 13:04:47;;;;;;;5.28;3.33;;;;;;;;;;5088104;28;20032;-73
2021/12/16 13:07:13;;;;;;;6.05;3.72;;;;;;;;;;5088465;28;20044;-71
2021/12/16 13:09:56;;;;;;;6.78;3.40;;;;;;;;;;5086842;28;20059;-72
2021/12/16 13:13:22;;;;;;;6.55;3.47;;;;;;;;;;5084898;28;20100;-72
2021/12/16 13:15:21;;;;;;;7.40;4.20;;;;;;;;;;5086110;28;20051;-72
2021/12/16 13:23:38;;;;;;;5.30;3.40;;;;;;;;;;5085226;28;20051;-74
2021/12/16 13:31:04;;;;;;;6.20;4.10;;;;;;;;;;5086271;28;20563;-73
2021/12/16 13:33:39;;;;;;;5.43;3.17;;;;;;;;;;5088215;28;20409;-73
2021/12/16 13:36:15;;;;;;;9.80;3.92;;;;;;;;;;5087506;28;20502;-76
2021/12/16 13:38:43;;;;;;;7.28;3.58;;;;;;;;;;5086229;28;20059;-77
2021/12/16 13:41:12;;;;;;;7.93;3.55;;;;;;;;;;5087888;28;20059;-76
2021/12/16 13:43:39;;;;;;;12.52;4.28;;;;;;;;;;5087974;28;20036;-75
2021/12/16 13:58:31;;;;;;;6.10;3.45;;;;;;;;;;5087657;28;20074;-73
2021/12/16 14:06:37;;;;;;;6.45;3.70;;;;;;;;;;5087663;28;20063;-73
2021/12/16 14:09:17;;;;;;;7.57;3.92;;;;;;;;;;5087206;28;20504;-73
2021/12/16 14:14:44;;;;;;;7.30;3.70;;;;;;;;;;5087793;28;20067;-72
2021/12/16 14:17:41;;;;;;;6.35;3.78;;;;;;;;;;5087137;28;20040;-73
2021/12/16 14:23:18;;;;;;;6.03;3.58;;;;;;;;;;5085594;28;20055;-73
2021/12/16 14:31:10;;;;;;;6.43;3.33;;;;;;;;;;5086017;28;20051;-74
2021/12/16 14:37:02;;;;;;;7.03;3.58;;;;;;;;;;5085230;28;20087;-72
2021/12/16 14:49:49;;;;;;;6.43;3.38;;;;;;;;;;5061624;28;20040;-72
2021/12/16 14:52:17;;;;;;;6.55;3.10;;;;;;;;;;5091465;28;20086;-74
2021/12/16 14:54:55;;;;;;;6.85;3.70;;;;;;;;;;5071772;28;20040;-74
2021/12/16 14:57:32;;;;;;;5.22;3.35;;;;;;;;;;5091485;28;20048;-74
2021/12/16 14:59:59;;;;;;;9.93;4.45;;;;;;;;;;5091549;28;20565;-73
2021/12/16 15:02:31;;;;;;;10.25;3.80;;;;;;;;;;5072323;28;20044;-73
2021/12/16 15:04:57;;;;;;;12.57;4.38;;;;;;;;;;5091512;28;20071;-73
2021/12/16 15:07:26;;;;;;;13.07;4.15;;;;;;;;;;5091243;28;20043;-72
2021/12/16 15:09:54;;;;;;;7.82;3.80;;;;;;;;;;5090688;28;20074;-72
2021/12/16 15:12:37;;;;;;;9.95;4.10;;;;;;;;;;5087396;28;20773;-72
2021/12/16 15:45:17;;;;;;;9.65;4.35;;;;;;;;;;5072779;28;20048;-73
2021/12/16 15:47:45;;;;;;;9.57;4.15;;;;;;;;;;5087113;28;20052;-73
2021/12/16 15:50:12;;;;;;;13.05;4.57;;;;;;;;;;5087897;28;20040;-73
2021/12/16 15:52:39;;;;;;;8.27;4.55;;;;;;;;;;5089033;28;20078;-73
2021/12/16 15:55:06;;;;;;;11.82;4.40;;;;;;;;;;5090158;28;20036;-72
2021/12/16 15:57:32;;;;;;;8.05;4.40;;;;;;;;;;5091399;28;20040;-73
2021/12/16 16:00:09;;;;;;;10.18;5.10;;;;;;;;;;5089170;28;20055;-73
2021/12/16 16:02:35;;;;;;;10.00;4.55;;;;;;;;;;5089232;28;20574;-72
2021/12/16 16:05:01;;;;;;;8.15;4.50;;;;;;;;;;5091248;28;20052;-72
2021/12/16 16:07:27;;;;;;;7.32;4.15;;;;;;;;;;5091836;28;20124;-72
2021/12/16 16:09:55;;;;;;;8.88;4.55;;;;;;;;;;5088623;28;20052;-72
2021/12/16 16:12:27;;;;;;;8.45;4.15;;;;;;;;;;5091463;28;20076;-73
2021/12/16 16:14:59;;;;;;;10.13;4.28;;;;;;;;;;5089855;28;20115;-73
2021/12/16 16:17:26;;;;;;;8.82;4.47;;;;;;;;;;5090291;28;20055;-73
2021/12/16 16:19:53;;;;;;;10.65;4.22;;;;;;;;;;5091246;28;20048;-73
2021/12/16 16:22:20;;;;;;;9.35;4.45;;;;;;;;;;5090338;28;20036;-74
2021/12/16 16:24:48;;;;;;;9.57;4.20;;;;;;;;;;5091163;28;20071;-73
2021/12/16 16:27:18;;;;;;;7.85;4.20;;;;;;;;;;5090053;28;20048;-73
2021/12/16 16:29:50;;;;;;;9.10;4.30;;;;;;;;;;5088506;28;20508;-72
2021/12/16 16:32:16;;;;;;;10.95;4.18;;;;;;;;;;5076470;28;20048;-71
2021/12/16 16:35:00;;;;;;;8.65;3.85;;;;;;;;;;5090371;28;20127;-73
2021/12/16 16:37:31;;;;;;;9.25;4.03;;;;;;;;;;5089132;28;20056;-73
2021/12/16 16:39:59;;;;;;;7.85;3.83;;;;;;;;;;5090400;28;20040;-73
2021/12/16 16:42:33;;;;;;;8.18;4.30;;;;;;;;;;5089230;28;20059;-72
2021/12/16 16:44:59;;;;;;;8.10;3.85;;;;;;;;;;5089753;28;20052;-73
2021/12/16 16:47:35;;;;;;;6.72;3.97;;;;;;;;;;5088497;28;20048;-73
2021/12/16 16:50:04;;;;;;;8.75;4.30;;;;;;;;;;5089063;28;20118;-72
2021/12/16 16:52:35;;;;;;;10.98;4.32;;;;;;;;;;5089342;28;20082;-74
2021/12/16 16:55:07;;;;;;;8.10;4.00;;;;;;;;;;5089531;28;20059;-72
2021/12/16 16:57:35;;;;;;;7.78;4.30;;;;;;;;;;5089910;28;20044;-72
2021/12/16 17:00:07;;;;;;;7.73;4.10;;;;;;;;;;5089195;28;20055;-72
2021/12/16 17:02:40;;;;;;;8.48;4.20;;;;;;;;;;5090218;28;20506;-72
2021/12/16 17:05:10;;;;;;;7.97;3.90;;;;;;;;;;5081400;28;20047;-72
2021/12/16 17:07:42;;;;;;;6.63;4.18;;;;;;;;;;5090041;28;20044;-72
2021/12/16 17:10:19;;;;;;;9.25;4.15;;;;;;;;;;5088474;28;20117;-72
2021/12/16 17:12:46;;;;;;;6.85;3.40;;;;;;;;;;5089838;28;20048;-72
2021/12/16 17:15:34;;;;;;;8.10;3.97;;;;;;;;;;5089504;28;20394;-72
2021/12/16 17:18:01;;;;;;;6.68;3.58;;;;;;;;;;5090043;28;20567;-72
2021/12/16 17:20:27;;;;;;;6.20;3.85;;;;;;;;;;5089365;28;20048;-73
2021/12/16 17:22:55;;;;;;;7.43;3.80;;;;;;;;;;5089949;28;20048;-73
2021/12/16 17:25:21;;;;;;;8.98;4.03;;;;;;;;;;5089408;28;20103;-72
2021/12/16 17:27:53;;;;;;;8.00;4.20;;;;;;;;;;5089363;28;20040;-74
2021/12/16 17:30:26;;;;;;;6.30;3.67;;;;;;;;;;5088268;28;20059;-73
2021/12/16 17:32:54;;;;;;;6.82;4.15;;;;;;;;;;5076209;28;20040;-72
2021/12/16 17:35:26;;;;;;;6.63;3.55;;;;;;;;;;5088274;28;20125;-72
2021/12/16 17:37:58;;;;;;;8.30;3.78;;;;;;;;;;5089143;28;20040;-71
2021/12/16 17:40:27;;;;;;;7.80;4.28;;;;;;;;;;5089737;28;20047;-72
2021/12/16 17:42:55;;;;;;;7.80;4.22;;;;;;;;;;5089185;28;20044;-73
2021/12/16 17:45:21;;;;;;;7.68;4.15;;;;;;;;;;5089246;28;20055;-73
2021/12/16 17:47:49;;;;;;;6.35;3.40;;;;;;;;;;5087752;28;20040;-71
2021/12/16 17:50:18;;;;;;;7.60;4.00;;;;;;;;;;5088362;28;20440;-72
2021/12/16 17:52:48;;;;;;;6.97;3.47;;;;;;;;;;5089565;28;20443;-72
2021/12/16 17:55:16;;;;;;;6.90;3.88;;;;;;;;;;5088791;28;20059;-73
2021/12/16 17:57:44;;;;;;;8.10;4.07;;;;;;;;;;5087912;28;20044;-72
2021/12/16 18:00:20;;;;;;;7.05;3.88;;;;;;;;;;5087564;28;20077;-73
2021/12/16 18:02:47;;;;;;;7.60;3.67;;;;;;;;;;5088025;28;20104;-72
2021/12/16 18:05:14;;;;;;;6.93;3.72;;;;;;;;;;5084629;28;20438;-71
2021/12/16 18:07:41;;;;;;;5.35;3.72;;;;;;;;;;5089431;28;20391;-73
2021/12/16 18:10:08;;;;;;;7.38;3.88;;;;;;;;;;5088999;28;20094;-72
2021/12/16 18:12:35;;;;;;;6.85;3.83;;;;;;;;;;5089135;28;20105;-72
2021/12/16 18:15:06;;;;;;;7.45;3.85;;;;;;;;;;5089519;28;20262;-72
2021/12/16 18:17:39;;;;;;;6.25;3.55;;;;;;;;;;5088833;28;20051;-72
2021/12/16 18:20:05;;;;;;;7.05;4.10;;;;;;;;;;5089185;28;20044;-72
2021/12/16 18:22:35;;;;;;;6.95;3.83;;;;;;;;;;5088888;28;20375;-72
2021/12/16 18:25:06;;;;;;;7.75;3.50;;;;;;;;;;5088780;28;20133;-73
2021/12/16 18:27:35;;;;;;;8.77;4.30;;;;;;;;;;5089310;28;20043;-73
2021/12/16 18:30:06;;;;;;;7.28;3.70;;;;;;;;;;5089386;28;20078;-73
2021/12/16 18:32:46;;;;;;;7.03;3.80;;;;;;;;;;5088652;28;20154;-73
2021/12/16 18:35:14;;;;;;;10.07;4.38;;;;;;;;;;5089190;28;20513;-72
2021/12/16 18:37:42;;;;;;;6.40;3.30;;;;;;;;;;5087762;28;20043;-72
2021/12/16 18:40:09;;;;;;;8.25;3.83;;;;;;;;;;5071195;28;20512;-73
2021/12/16 18:42:35;;;;;;;6.55;3.72;;;;;;;;;;5088714;28;20513;-72